Time;durP1;ratioP1;P1;durP2;ratioP2;P2;SDS_P1;SDS_P2;PMS_P1;PMS_P2;Temp;Humidity;BMP_temperature;BMP_pressure;BME280_temperature;BME280_humidity;BME280_pressure;Samples;Min_cycle;Max_cycle;Signal;HPM_P1;HPM_P2
2023/10/20 00:01:27;;;;;;;22.98;9.63;;;;;;;7.26;100.00;98970.38;6254154;28;20092;-72
2023/10/20 00:04:30;;;;;;;19.55;9.60;;;;;;;7.30;100.00;98971.84;6246320;28;20054;-73
2023/10/20 00:07:31;;;;;;;23.95;8.98;;;;;;;7.26;100.00;98967.78;6254388;28;20057;-72
2023/10/20 00:10:35;;;;;;;25.30;11.05;;;;;;;7.28;100.00;98968.53;6254216;28;20045;-72
2023/10/20 00:13:37;;;;;;;25.83;10.27;;;;;;;7.24;100.00;98972.28;6245854;28;20049;-72
2023/10/20 00:16:38;;;;;;;29.25;11.65;;;;;;;7.21;100.00;98978.53;6254432;28;20056;-72
2023/10/20 00:19:41;;;;;;;24.50;9.65;;;;;;;7.20;100.00;98973.41;6254131;28;20049;-72
2023/10/20 00:22:42;;;;;;;24.25;10.52;;;;;;;7.21;100.00;98964.63;6253753;28;20428;-72
2023/10/20 00:25:44;;;;;;;20.35;9.43;;;;;;;7.21;100.00;98962.84;6254095;28;20053;-71
2023/10/20 00:28:46;;;;;;;20.60;9.57;;;;;;;7.23;100.00;98979.28;6253944;28;20045;-72
2023/10/20 00:31:47;;;;;;;24.08;9.55;;;;;;;7.26;100.00;98983.44;6253613;28;20046;-71
2023/10/20 00:34:50;;;;;;;20.85;8.98;;;;;;;7.23;100.00;98974.06;6253697;28;20061;-72
2023/10/20 00:37:51;;;;;;;19.45;9.35;;;;;;;7.23;100.00;98968.00;6245470;28;20064;-72
2023/10/20 00:40:53;;;;;;;22.38;9.50;;;;;;;7.24;100.00;98962.66;6253410;28;20107;-72
2023/10/20 00:43:54;;;;;;;23.02;9.35;;;;;;;7.23;100.00;98962.78;6245191;28;20446;-71
2023/10/20 00:46:56;;;;;;;27.10;11.02;;;;;;;7.23;100.00;98963.59;6253618;28;20071;-71
2023/10/20 00:49:59;;;;;;;29.27;10.32;;;;;;;7.24;100.00;98975.72;6253391;28;20465;-72
2023/10/20 00:53:01;;;;;;;19.80;9.48;;;;;;;7.24;100.00;98961.81;6253216;28;20052;-72
2023/10/20 00:56:05;;;;;;;21.52;9.88;;;;;;;7.21;100.00;98952.41;6253591;28;20056;-72
2023/10/20 00:59:06;;;;;;;24.67;9.50;;;;;;;7.22;100.00;98951.50;6253298;28;20476;-72
2023/10/20 01:02:08;;;;;;;20.60;9.18;;;;;;;7.19;100.00;98948.25;6252596;28;20046;-72
2023/10/20 01:05:14;;;;;;;23.35;9.27;;;;;;;7.20;100.00;98945.53;6253283;28;20060;-71
2023/10/20 01:08:16;;;;;;;29.15;10.10;;;;;;;7.25;100.00;98943.41;6253212;28;20099;-72
2023/10/20 01:11:17;;;;;;;29.23;9.82;;;;;;;7.22;100.00;98940.19;6253140;28;20055;-72
2023/10/20 01:14:18;;;;;;;21.15;10.18;;;;;;;7.23;100.00;98949.72;6252865;28;20050;-72
2023/10/20 01:17:20;;;;;;;24.13;10.10;;;;;;;7.19;100.00;98932.56;6252994;28;20331;-72
2023/10/20 01:20:23;;;;;;;29.92;9.45;;;;;;;7.23;100.00;98927.03;6252555;28;20057;-72
2023/10/20 01:23:24;;;;;;;23.17;9.60;;;;;;;7.21;100.00;98922.84;6252748;28;20073;-71
2023/10/20 01:26:29;;;;;;;19.27;8.27;;;;;;;7.23;100.00;98913.97;6252929;28;20045;-72
2023/10/20 01:29:31;;;;;;;22.98;9.93;;;;;;;7.23;100.00;98908.75;6252718;28;20053;-70
2023/10/20 01:32:33;;;;;;;20.08;9.30;;;;;;;7.20;100.00;98897.66;6252280;28;20041;-72
2023/10/20 01:35:34;;;;;;;21.67;8.65;;;;;;;7.19;100.00;98903.84;6252768;28;20041;-70
2023/10/20 01:38:36;;;;;;;22.88;9.57;;;;;;;7.19;100.00;98899.44;6252206;28;20071;-70
2023/10/20 01:41:39;;;;;;;22.45;8.80;;;;;;;7.18;100.00;98904.78;6251977;28;20054;-71
2023/10/20 01:44:40;;;;;;;21.58;8.50;;;;;;;7.20;100.00;98898.50;6252360;28;20050;-70
2023/10/20 01:47:41;;;;;;;18.92;8.55;;;;;;;7.19;100.00;98896.84;6252096;28;20053;-71
2023/10/20 01:50:44;;;;;;;15.23;8.07;;;;;;;7.17;100.00;98893.47;6251515;28;20049;-71
2023/10/20 01:53:46;;;;;;;20.25;8.38;;;;;;;7.10;100.00;98876.56;6244761;28;20046;-71
2023/10/20 01:56:49;;;;;;;17.30;8.25;;;;;;;7.15;100.00;98864.03;6250669;28;20060;-71
2023/10/20 01:59:50;;;;;;;19.10;8.20;;;;;;;7.10;100.00;98863.50;6251473;28;20061;-71
2023/10/20 02:02:52;;;;;;;17.52;8.48;;;;;;;7.11;100.00;98854.72;6243401;28;20049;-71
2023/10/20 02:05:53;;;;;;;15.15;7.82;;;;;;;7.13;100.00;98831.97;6251677;28;20049;-70
2023/10/20 02:08:55;;;;;;;21.25;8.57;;;;;;;7.15;100.00;98813.56;6251615;28;20057;-71
2023/10/20 02:11:58;;;;;;;18.13;7.45;;;;;;;7.14;100.00;98817.94;6251419;28;20049;-71
2023/10/20 02:14:59;;;;;;;19.67;7.80;;;;;;;7.11;100.00;98812.94;6242414;28;20057;-70
2023/10/20 02:18:01;;;;;;;20.15;8.38;;;;;;;7.12;100.00;98817.22;6251575;28;20049;-70
2023/10/20 02:21:04;;;;;;;18.67;8.25;;;;;;;7.14;100.00;98817.94;6250365;28;20341;-70
2023/10/20 02:24:06;;;;;;;20.27;8.02;;;;;;;7.16;100.00;98823.06;6251526;28;20095;-70
2023/10/20 02:27:09;;;;;;;18.40;8.40;;;;;;;7.10;100.00;98833.00;6251481;28;20050;-71
2023/10/20 02:30:13;;;;;;;16.17;6.85;;;;;;;7.09;100.00;98830.50;6251331;28;20052;-71
2023/10/20 02:33:14;;;;;;;18.17;7.95;;;;;;;7.11;100.00;98823.38;6251200;28;20096;-71
2023/10/20 02:36:17;;;;;;;15.25;7.57;;;;;;;7.07;100.00;98827.16;6242921;28;20050;-71
2023/10/20 02:39:18;;;;;;;12.77;7.32;;;;;;;7.08;100.00;98823.59;6250946;28;20049;-70
2023/10/20 02:42:21;;;;;;;18.02;6.85;;;;;;;7.06;100.00;98825.47;6242432;28;20045;-71
2023/10/20 02:45:23;;;;;;;15.98;7.55;;;;;;;7.06;100.00;98834.16;6250872;28;20056;-70
2023/10/20 02:48:25;;;;;;;15.73;7.15;;;;;;;7.07;100.00;98827.97;6251080;28;20057;-72
2023/10/20 02:51:26;;;;;;;18.63;7.15;;;;;;;7.08;100.00;98818.38;6250479;28;20049;-70
2023/10/20 02:54:27;;;;;;;14.85;6.80;;;;;;;7.06;100.00;98802.81;6250586;28;20464;-71
2023/10/20 02:57:30;;;;;;;15.80;6.63;;;;;;;7.09;100.00;98799.16;6250780;28;20045;-71
2023/10/20 03:00:33;;;;;;;15.27;6.53;;;;;;;7.12;100.00;98801.53;6250613;28;20075;-71
2023/10/20 03:03:34;;;;;;;13.85;6.10;;;;;;;7.07;100.00;98787.97;6250470;28;20132;-70
2023/10/20 03:06:36;;;;;;;18.88;6.32;;;;;;;7.05;100.00;98790.69;6250403;28;20462;-70
2023/10/20 03:09:37;;;;;;;12.48;5.78;;;;;;;7.07;100.00;98799.25;6250643;28;20508;-70
2023/10/20 03:12:40;;;;;;;16.30;6.63;;;;;;;7.06;100.00;98799.38;6250450;28;20045;-71
2023/10/20 03:15:41;;;;;;;16.13;5.60;;;;;;;7.06;100.00;98801.97;6250498;28;20725;-70
2023/10/20 03:18:43;;;;;;;12.88;5.85;;;;;;;7.09;100.00;98805.22;6250357;28;20473;-70
2023/10/20 03:21:44;;;;;;;12.38;5.60;;;;;;;7.09;100.00;98799.16;6250190;28;20046;-70
2023/10/20 03:24:45;;;;;;;9.00;4.60;;;;;;;7.03;100.00;98804.78;6250753;28;20456;-69
2023/10/20 03:27:48;;;;;;;18.13;4.72;;;;;;;7.05;100.00;98793.31;6255474;28;20049;-70
2023/10/20 03:30:50;;;;;;;13.60;5.28;;;;;;;7.04;100.00;98783.81;6255680;28;20057;-70
2023/10/20 03:33:52;;;;;;;10.20;4.88;;;;;;;7.05;100.00;98777.66;6255343;28;20045;-71
2023/10/20 03:36:54;;;;;;;9.63;4.78;;;;;;;7.00;100.00;98778.91;6255324;28;20429;-71
2023/10/20 03:39:55;;;;;;;9.07;5.22;;;;;;;6.98;100.00;98776.41;6255344;28;20046;-70
2023/10/20 03:42:58;;;;;;;13.93;4.43;;;;;;;6.99;100.00;98765.00;6254959;28;20045;-71
2023/10/20 03:46:00;;;;;;;8.35;4.80;;;;;;;6.99;100.00;98761.56;6254981;28;20107;-71
2023/10/20 03:49:04;;;;;;;9.25;4.35;;;;;;;6.98;100.00;98767.72;6255105;28;20052;-70
2023/10/20 03:52:06;;;;;;;11.68;4.90;;;;;;;6.99;100.00;98761.56;6245776;28;20128;-70
2023/10/20 03:55:08;;;;;;;11.52;5.10;;;;;;;7.01;100.00;98757.06;6246376;28;20362;-71
2023/10/20 03:58:11;;;;;;;10.75;5.07;;;;;;;6.98;100.00;98741.63;6254815;28;20179;-70
2023/10/20 04:01:13;;;;;;;9.90;4.70;;;;;;;6.99;100.00;98740.66;6254670;28;20050;-71
2023/10/20 04:04:14;;;;;;;12.18;5.13;;;;;;;6.92;100.00;98735.06;6246234;28;20056;-70
2023/10/20 04:07:16;;;;;;;9.05;5.00;;;;;;;6.89;100.00;98726.59;6254712;28;20053;-71
2023/10/20 04:10:19;;;;;;;11.40;4.70;;;;;;;6.91;100.00;98725.56;6254521;28;20045;-70
2023/10/20 04:13:23;;;;;;;10.15;4.70;;;;;;;6.88;100.00;98741.44;6254338;28;20398;-71
2023/10/20 04:16:27;;;;;;;15.80;5.45;;;;;;;6.98;100.00;98728.56;6254171;28;20049;-70
2023/10/20 04:19:28;;;;;;;11.98;4.80;;;;;;;6.95;100.00;98726.16;6254200;28;20053;-71
2023/10/20 04:22:30;;;;;;;14.48;5.50;;;;;;;6.97;100.00;98693.78;6254181;28;20453;-71
2023/10/20 04:25:33;;;;;;;8.30;4.28;;;;;;;6.96;100.00;98683.47;6254058;28;20373;-71
2023/10/20 04:28:41;;;;;;;10.93;5.88;;;;;;;6.92;100.00;98684.63;6253961;28;20179;-70
2023/10/20 04:41:55;;;;;;;11.73;5.55;;;;;;;6.98;100.00;98652.84;6248366;28;20045;-69
2023/10/20 04:45:16;;;;;;;11.45;4.60;;;;;;;6.90;100.00;98626.44;6253237;28;20059;-70
2023/10/20 04:49:00;;;;;;;10.55;4.70;;;;;;;6.86;100.00;98613.63;6253543;28;20046;-69
2023/10/20 04:52:05;;;;;;;9.25;4.60;;;;;;;6.83;100.00;98613.84;6253136;28;20459;-71
2023/10/20 04:58:34;;;;;;;12.48;5.28;;;;;;;6.86;100.00;98618.84;6253470;28;20446;-72
2023/10/20 05:01:43;;;;;;;9.40;4.65;;;;;;;6.89;100.00;98609.94;6253378;28;20046;-69
2023/10/20 05:04:46;;;;;;;10.77;5.47;;;;;;;6.88;100.00;98610.88;6253142;28;20057;-70
2023/10/20 05:07:50;;;;;;;12.18;5.57;;;;;;;6.83;100.00;98631.28;6253324;28;20060;-70
2023/10/20 05:10:53;;;;;;;11.05;4.78;;;;;;;6.83;100.00;98602.56;6252897;28;20052;-70
2023/10/20 05:13:55;;;;;;;8.73;4.57;;;;;;;6.85;100.00;98614.53;6253212;28;20440;-70
2023/10/20 05:16:57;;;;;;;10.15;4.60;;;;;;;6.82;100.00;98608.72;6253279;28;20434;-70
2023/10/20 05:19:59;;;;;;;13.27;5.07;;;;;;;6.83;100.00;98610.38;6252817;28;20365;-70
2023/10/20 05:23:00;;;;;;;13.80;5.50;;;;;;;6.82;100.00;98598.28;6252824;28;20050;-71
2023/10/20 05:26:02;;;;;;;14.02;5.53;;;;;;;6.91;100.00;98565.47;6253036;28;20058;-70
2023/10/20 05:29:03;;;;;;;13.23;4.53;;;;;;;6.87;100.00;98570.06;6242792;28;20058;-71
2023/10/20 05:32:06;;;;;;;12.23;5.20;;;;;;;6.77;100.00;98589.97;6246811;28;20042;-70
2023/10/20 05:35:09;;;;;;;11.20;5.35;;;;;;;6.79;100.00;98585.44;6251888;28;20049;-71
2023/10/20 05:38:10;;;;;;;13.32;6.05;;;;;;;6.80;100.00;98587.09;6239757;28;20161;-70
2023/10/20 05:41:12;;;;;;;10.57;5.45;;;;;;;6.81;100.00;98584.41;6252185;28;20052;-70
2023/10/20 05:44:14;;;;;;;10.65;5.43;;;;;;;6.85;100.00;98587.59;6249677;28;20377;-70
2023/10/20 05:47:17;;;;;;;14.23;5.72;;;;;;;6.82;100.00;98603.50;6243154;28;20049;-71
2023/10/20 05:50:18;;;;;;;13.52;5.75;;;;;;;6.81;100.00;98601.81;6238568;28;20060;-71
2023/10/20 05:53:20;;;;;;;15.55;6.38;;;;;;;6.81;100.00;98602.69;6252193;28;20046;-71
2023/10/20 05:56:21;;;;;;;11.50;5.18;;;;;;;6.83;100.00;98603.41;6252574;28;20060;-70
2023/10/20 05:59:22;;;;;;;10.00;5.93;;;;;;;6.76;100.00;98594.31;6244110;28;20065;-71
2023/10/20 06:02:25;;;;;;;14.30;5.95;;;;;;;6.81;100.00;98601.81;6244547;28;20045;-71
2023/10/20 06:05:27;;;;;;;13.77;5.80;;;;;;;6.83;100.00;98564.22;6240705;28;20425;-70
2023/10/20 06:08:29;;;;;;;10.55;5.20;;;;;;;6.84;100.00;98552.84;6244310;28;20523;-71
2023/10/20 06:11:30;;;;;;;14.60;5.57;;;;;;;6.82;100.00;98562.56;6247916;28;20095;-71
2023/10/20 06:14:32;;;;;;;10.40;5.22;;;;;;;6.91;100.00;98563.69;6251135;28;20345;-71
2023/10/20 06:17:35;;;;;;;7.85;4.43;;;;;;;6.90;100.00;98564.59;6248199;28;20056;-71
2023/10/20 06:20:39;;;;;;;9.13;4.53;;;;;;;6.88;100.00;98563.06;6249035;28;20041;-72
2023/10/20 06:23:41;;;;;;;9.30;4.18;;;;;;;6.86;100.00;98550.13;6242996;28;20038;-73
2023/10/20 06:26:42;;;;;;;9.15;4.78;;;;;;;6.90;100.00;98564.59;6240227;28;20046;-73
2023/10/20 06:29:47;;;;;;;10.73;4.97;;;;;;;6.85;100.00;98551.06;6251140;28;20054;-72
2023/10/20 06:33:11;;;;;;;7.75;4.32;;;;;;;6.84;100.00;98547.63;6250484;28;20373;-72
2023/10/20 06:36:16;;;;;;;7.95;4.32;;;;;;;6.83;100.00;98534.69;6251157;28;20366;-73
2023/10/20 06:39:19;;;;;;;7.78;4.15;;;;;;;6.82;100.00;98543.47;6251173;28;20049;-72
2023/10/20 06:42:21;;;;;;;12.77;4.85;;;;;;;6.83;100.00;98525.06;6250811;28;20056;-73
2023/10/20 06:45:22;;;;;;;5.72;3.47;;;;;;;6.85;100.00;98522.34;6251178;28;20049;-74
2023/10/20 06:48:26;;;;;;;7.43;3.40;;;;;;;6.85;100.00;98512.72;6251030;28;20084;-73
2023/10/20 06:51:29;;;;;;;13.35;4.47;;;;;;;6.84;100.00;98521.50;6246827;28;20057;-73
2023/10/20 06:54:31;;;;;;;9.50;3.95;;;;;;;6.90;100.00;98516.78;6247459;28;20045;-72
2023/10/20 06:57:33;;;;;;;9.25;3.63;;;;;;;6.90;100.00;98503.72;6246158;28;20053;-72
2023/10/20 07:00:36;;;;;;;7.55;3.08;;;;;;;6.86;100.00;98500.53;6254325;28;20073;-72
2023/10/20 07:03:40;;;;;;;6.95;3.03;;;;;;;6.85;100.00;98510.13;6252869;28;20041;-72
2023/10/20 07:06:42;;;;;;;6.45;2.80;;;;;;;6.85;100.00;98499.66;6237356;28;20053;-74
2023/10/20 07:09:44;;;;;;;4.88;3.08;;;;;;;6.89;100.00;98500.28;6245583;28;20052;-74
2023/10/20 07:12:45;;;;;;;6.35;2.85;;;;;;;6.90;100.00;98507.16;6248842;28;20041;-72
2023/10/20 07:15:52;;;;;;;5.70;2.97;;;;;;;6.88;100.00;98509.06;6252645;28;20053;-73
2023/10/20 07:18:54;;;;;;;8.50;2.70;;;;;;;6.91;100.00;98493.19;6264183;28;20050;-72
2023/10/20 07:21:56;;;;;;;7.88;2.88;;;;;;;6.86;100.00;98496.13;6241855;28;20049;-73
2023/10/20 07:24:57;;;;;;;5.28;2.88;;;;;;;6.90;100.00;98499.34;6250598;28;20049;-73
2023/10/20 07:27:59;;;;;;;4.15;1.88;;;;;;;6.90;100.00;98494.09;6250295;28;20052;-73
2023/10/20 07:31:00;;;;;;;4.60;2.08;;;;;;;6.84;100.00;98481.53;6246520;28;20054;-73
2023/10/20 07:34:04;;;;;;;4.57;2.20;;;;;;;6.86;100.00;98492.69;6240074;28;20056;-72
2023/10/20 07:37:06;;;;;;;3.00;2.08;;;;;;;6.81;100.00;98494.78;6242077;28;20054;-72
2023/10/20 07:40:09;;;;;;;4.85;1.60;;;;;;;6.80;100.00;98490.53;6241618;28;20678;-72
2023/10/20 07:43:11;;;;;;;5.22;1.92;;;;;;;6.80;100.00;98480.09;6249790;28;20049;-72
2023/10/20 07:46:17;;;;;;;3.33;1.92;;;;;;;6.81;100.00;98481.75;6241978;28;20056;-72
2023/10/20 07:49:19;;;;;;;4.22;1.73;;;;;;;6.82;100.00;98486.88;6249838;28;20050;-72
2023/10/20 07:52:21;;;;;;;3.72;1.45;;;;;;;6.79;100.00;98478.44;6241701;28;20057;-70
2023/10/20 07:55:22;;;;;;;2.00;1.40;;;;;;;6.81;100.00;98492.19;6250062;28;20057;-71
2023/10/20 07:58:24;;;;;;;4.38;1.42;;;;;;;6.75;100.00;98490.88;6250000;28;20060;-73
2023/10/20 08:01:25;;;;;;;3.63;1.77;;;;;;;6.72;100.00;98488.50;6249206;28;20350;-70
2023/10/20 08:04:28;;;;;;;5.80;2.08;;;;;;;6.73;100.00;98487.56;6240723;28;20046;-72
2023/10/20 08:07:29;;;;;;;3.83;1.65;;;;;;;6.73;100.00;98479.72;6251531;28;20206;-70
2023/10/20 08:10:32;;;;;;;4.68;1.70;;;;;;;6.72;100.00;98479.81;6274274;28;20155;-71
2023/10/20 08:13:34;;;;;;;2.20;1.30;;;;;;;6.75;100.00;98482.22;6277912;28;20052;-72
2023/10/20 08:16:36;;;;;;;3.55;1.20;;;;;;;6.68;100.00;98470.56;6279109;28;20460;-71
2023/10/20 08:19:39;;;;;;;2.25;1.60;;;;;;;6.71;100.00;98462.50;6248534;28;20176;-71
2023/10/20 08:22:41;;;;;;;3.10;1.55;;;;;;;6.71;100.00;98465.09;6254019;28;20084;-71
2023/10/20 08:25:42;;;;;;;2.60;1.70;;;;;;;6.71;100.00;98465.09;6253351;28;20060;-71
2023/10/20 08:28:44;;;;;;;1.67;0.95;;;;;;;6.69;100.00;98465.22;6253885;28;20054;-71
2023/10/20 08:31:45;;;;;;;2.28;1.40;;;;;;;6.70;100.00;98466.88;6253765;28;20365;-72
2023/10/20 08:34:48;;;;;;;4.78;1.13;;;;;;;6.69;100.00;98472.22;6253676;28;20056;-71
2023/10/20 08:37:49;;;;;;;2.25;1.30;;;;;;;6.67;100.00;98459.28;6252528;28;20060;-72
2023/10/20 08:40:51;;;;;;;1.92;1.27;;;;;;;6.60;100.00;98461.50;6247075;28;20456;-71
2023/10/20 08:43:53;;;;;;;1.88;0.80;;;;;;;6.58;100.00;98458.16;6245120;28;20061;-72
2023/10/20 08:46:55;;;;;;;3.08;0.80;;;;;;;6.66;100.00;98451.56;6253813;28;20045;-72
2023/10/20 08:49:58;;;;;;;2.00;1.08;;;;;;;6.65;100.00;98452.53;6253380;28;20140;-72
2023/10/20 08:53:04;;;;;;;1.02;0.68;;;;;;;6.63;100.00;98446.56;6253485;28;20076;-72
2023/10/20 08:56:06;;;;;;;1.15;0.40;;;;;;;6.54;100.00;98441.09;6251996;28;20053;-71
2023/10/20 08:59:08;;;;;;;1.00;0.80;;;;;;;6.58;100.00;98436.47;6239936;28;20457;-72
2023/10/20 09:02:09;;;;;;;5.47;0.70;;;;;;;6.58;100.00;98442.50;6252915;28;20453;-73
2023/10/20 09:05:12;;;;;;;0.82;0.55;;;;;;;6.61;100.00;98442.28;6252747;28;20045;-71
2023/10/20 09:08:14;;;;;;;0.85;0.57;;;;;;;6.59;100.00;98440.75;6258419;28;20052;-72
2023/10/20 09:11:15;;;;;;;1.65;0.57;;;;;;;6.56;100.00;98449.63;6277602;28;20075;-72
2023/10/20 09:14:16;;;;;;;0.63;0.47;;;;;;;6.53;100.00;98449.84;6277826;28;20040;-73
2023/10/20 09:17:23;;;;;;;0.43;0.40;;;;;;;6.54;100.00;98450.69;6278183;28;20060;-74
2023/10/20 09:20:25;;;;;;;0.40;0.40;;;;;;;6.51;100.00;98448.31;6277420;28;20056;-71
2023/10/20 09:23:27;;;;;;;0.85;0.70;;;;;;;6.53;100.00;98456.84;6277026;28;20056;-71
2023/10/20 09:26:30;;;;;;;2.40;0.63;;;;;;;6.50;100.00;98455.31;6277661;28;20441;-73
2023/10/20 09:29:32;;;;;;;1.17;0.80;;;;;;;6.52;100.00;98456.03;6277257;28;20055;-71
2023/10/20 09:32:34;;;;;;;1.45;0.60;;;;;;;6.52;100.00;98465.63;6277302;28;20049;-72
2023/10/20 09:35:39;;;;;;;0.82;0.47;;;;;;;6.49;100.00;98455.41;6277739;28;20052;-72
2023/10/20 09:38:44;;;;;;;0.52;0.45;;;;;;;6.54;100.00;98454.16;6257223;28;20051;-72
2023/10/20 09:41:49;;;;;;;1.25;0.73;;;;;;;6.52;100.00;98463.84;6251368;28;20052;-72
2023/10/20 09:44:59;;;;;;;0.57;0.40;;;;;;;6.48;100.00;98461.59;6246303;28;20104;-71
2023/10/20 09:48:05;;;;;;;1.30;0.80;;;;;;;6.45;100.00;98456.56;6227709;28;20474;-72
2023/10/20 09:51:08;;;;;;;4.22;0.70;;;;;;;6.45;100.00;98453.97;6227464;28;20060;-72
2023/10/20 09:54:10;;;;;;;4.25;0.82;;;;;;;6.46;100.00;98459.09;6227476;28;20056;-70
2023/10/20 09:57:13;;;;;;;2.15;0.40;;;;;;;6.41;100.00;98461.22;6227675;28;20080;-72
2023/10/20 10:00:17;;;;;;;3.17;0.90;;;;;;;6.47;100.00;98459.94;6227108;28;20100;-71
2023/10/20 10:03:28;;;;;;;1.42;0.80;;;;;;;6.40;100.00;98458.69;6244416;28;20461;-71
2023/10/20 10:06:35;;;;;;;2.60;0.75;;;;;;;6.46;100.00;98453.88;6250941;28;20046;-71
2023/10/20 10:09:37;;;;;;;0.93;0.60;;;;;;;6.42;100.00;98460.25;6249111;28;20056;-72
2023/10/20 10:12:39;;;;;;;0.95;0.70;;;;;;;6.51;100.00;98446.53;6244279;28;20038;-71
2023/10/20 10:15:41;;;;;;;0.70;0.60;;;;;;;6.48;100.00;98448.53;6241419;28;20052;-71
2023/10/20 10:18:46;;;;;;;0.90;0.60;;;;;;;6.36;100.00;98450.28;6246206;28;20046;-72
2023/10/20 10:21:54;;;;;;;1.63;0.70;;;;;;;6.42;100.00;98444.59;6246350;28;20091;-71
2023/10/20 10:24:56;;;;;;;1.20;0.80;;;;;;;6.40;100.00;98440.44;6241461;28;20049;-72
2023/10/20 10:28:08;;;;;;;1.08;0.70;;;;;;;6.49;100.00;98434.53;6242762;28;20049;-72
2023/10/20 10:31:10;;;;;;;1.52;0.85;;;;;;;6.46;100.00;98437.41;6236706;28;22306;-70
2023/10/20 10:34:11;;;;;;;2.17;0.90;;;;;;;6.44;100.00;98413.19;6247188;28;20045;-73
2023/10/20 10:37:15;;;;;;;2.05;0.90;;;;;;;6.42;100.00;98408.09;6249987;28;20434;-72
2023/10/20 10:40:18;;;;;;;1.42;0.77;;;;;;;6.38;100.00;98404.03;6243577;28;20046;-72
2023/10/20 10:43:21;;;;;;;1.27;0.70;;;;;;;6.39;100.00;98397.03;6249258;28;20041;-72
2023/10/20 10:46:34;;;;;;;1.30;0.90;;;;;;;6.38;100.00;98388.38;6243795;28;20041;-72
2023/10/20 10:49:46;;;;;;;1.13;1.02;;;;;;;6.36;100.00;98382.47;6250923;28;20090;-71
2023/10/20 10:52:49;;;;;;;2.10;1.42;;;;;;;6.32;100.00;98370.59;6245041;28;20049;-71
2023/10/20 10:55:50;;;;;;;1.65;0.73;;;;;;;6.29;100.00;98373.41;6248364;28;20053;-73
2023/10/20 10:58:51;;;;;;;1.88;1.13;;;;;;;6.31;100.00;98350.66;6250625;28;20052;-72
2023/10/20 11:01:53;;;;;;;1.27;1.00;;;;;;;6.31;100.00;98367.16;6244789;28;20052;-72
2023/10/20 11:04:55;;;;;;;1.08;0.90;;;;;;;6.28;100.00;98363.94;6236221;28;20049;-71
2023/10/20 11:08:01;;;;;;;1.48;0.90;;;;;;;6.28;100.00;98374.38;6248849;28;20045;-71
2023/10/20 11:11:02;;;;;;;1.55;1.33;;;;;;;6.28;100.00;98363.94;6242442;28;20045;-72
2023/10/20 11:14:04;;;;;;;5.03;3.03;;;;;;;6.24;100.00;98375.53;6250618;28;20059;-71
2023/10/20 11:17:06;;;;;;;4.38;2.90;;;;;;;6.26;100.00;98391.88;6246913;28;20060;-72
2023/10/20 11:20:09;;;;;;;1.58;1.20;;;;;;;6.28;100.00;98390.84;6241891;28;20052;-72
2023/10/20 11:23:14;;;;;;;2.90;1.00;;;;;;;6.26;100.00;98377.06;6250342;28;20060;-71
2023/10/20 11:26:17;;;;;;;0.85;0.75;;;;;;;6.24;100.00;98389.41;6250273;28;20175;-71
2023/10/20 11:29:18;;;;;;;1.05;0.70;;;;;;;6.22;100.00;98374.78;6250360;28;20056;-71
2023/10/20 11:32:20;;;;;;;0.88;0.52;;;;;;;6.23;100.00;98377.31;6241627;28;20054;-72
2023/10/20 11:35:24;;;;;;;0.40;0.35;;;;;;;6.22;100.00;98360.00;6250199;28;20049;-72
2023/10/20 11:38:27;;;;;;;1.00;0.70;;;;;;;6.25;100.00;98369.38;6250091;28;20057;-72
2023/10/20 11:41:29;;;;;;;1.95;0.75;;;;;;;6.25;100.00;98362.38;6250114;28;20049;-72
2023/10/20 11:44:30;;;;;;;1.23;0.80;;;;;;;6.20;100.00;98361.88;6249954;28;20050;-71
2023/10/20 11:47:33;;;;;;;0.65;0.60;;;;;;;6.27;100.00;98360.50;6253596;28;20045;-73
2023/10/20 11:50:34;;;;;;;0.57;0.47;;;;;;;6.26;100.00;98356.19;6254639;28;20045;-73
2023/10/20 11:53:37;;;;;;;1.08;0.50;;;;;;;6.26;100.00;98327.50;6254651;28;20365;-72
2023/10/20 11:56:40;;;;;;;0.70;0.63;;;;;;;6.28;100.00;98317.00;6254703;28;20049;-73
2023/10/20 11:59:41;;;;;;;0.90;0.60;;;;;;;6.26;100.00;98309.25;6246448;28;20215;-72
2023/10/20 12:02:43;;;;;;;1.20;0.80;;;;;;;6.26;100.00;98308.44;6242368;28;20046;-72
2023/10/20 12:05:46;;;;;;;1.05;0.55;;;;;;;6.24;100.00;98294.69;6230155;28;20303;-71
2023/10/20 12:08:49;;;;;;;0.63;0.45;;;;;;;6.24;100.00;98281.66;6252747;28;20045;-72
2023/10/20 12:11:50;;;;;;;0.73;0.60;;;;;;;6.26;100.00;98279.75;6245663;28;20081;-71
2023/10/20 12:14:52;;;;;;;0.50;0.50;;;;;;;6.19;100.00;98273.34;6252821;28;20434;-70
2023/10/20 12:17:53;;;;;;;0.98;0.52;;;;;;;6.26;100.00;98277.97;6252555;28;20412;-74
2023/10/20 12:20:55;;;;;;;0.63;0.50;;;;;;;6.28;100.00;98264.81;6248781;28;20057;-72
2023/10/20 12:23:58;;;;;;;0.50;0.50;;;;;;;6.28;100.00;98255.22;6247500;28;20072;-71
2023/10/20 12:26:59;;;;;;;1.30;0.70;;;;;;;6.25;100.00;98257.22;6242883;28;20054;-72
2023/10/20 12:30:01;;;;;;;1.30;0.50;;;;;;;6.29;100.00;98256.88;6245549;28;20050;-71
2023/10/20 12:33:05;;;;;;;1.20;0.85;;;;;;;6.32;100.00;98245.41;6244050;28;20061;-71
2023/10/20 12:36:07;;;;;;;1.33;0.82;;;;;;;6.31;100.00;98241.09;6246467;28;20096;-72
2023/10/20 12:39:17;;;;;;;1.00;0.45;;;;;;;6.21;100.00;98201.84;6242132;28;20053;-72
2023/10/20 12:42:18;;;;;;;0.93;0.60;;;;;;;6.19;100.00;98179.47;6249804;28;20073;-72
2023/10/20 12:45:19;;;;;;;1.30;0.57;;;;;;;6.17;100.00;98171.75;6245117;28;20052;-72
2023/10/20 12:48:21;;;;;;;0.75;0.70;;;;;;;6.32;100.00;98162.75;6253726;28;20068;-73
2023/10/20 12:51:22;;;;;;;0.63;0.52;;;;;;;6.22;100.00;98160.97;6251018;28;20358;-73
2023/10/20 12:54:25;;;;;;;0.57;0.52;;;;;;;6.20;100.00;98158.47;6245975;28;20045;-73
2023/10/20 12:57:27;;;;;;;1.67;0.70;;;;;;;6.17;100.00;98147.44;6236054;28;20046;-73
2023/10/20 13:00:28;;;;;;;0.50;0.50;;;;;;;6.11;100.00;98161.78;6246030;28;20045;-73
2023/10/20 13:03:30;;;;;;;1.10;0.70;;;;;;;6.14;100.00;98158.13;6252609;28;20053;-72
2023/10/20 13:06:31;;;;;;;0.50;0.50;;;;;;;6.09;100.00;98153.28;6248923;28;20049;-73
2023/10/20 13:09:34;;;;;;;0.60;0.60;;;;;;;6.09;100.00;98156.72;6242117;28;20048;-72
2023/10/20 13:12:36;;;;;;;0.98;0.75;;;;;;;6.05;100.00;98170.91;6244797;28;20056;-73
2023/10/20 13:15:38;;;;;;;0.60;0.60;;;;;;;6.06;100.00;98167.34;6244422;28;20053;-73
2023/10/20 13:18:39;;;;;;;1.23;0.80;;;;;;;6.02;100.00;98167.72;6237859;28;20045;-73
2023/10/20 13:21:40;;;;;;;1.05;0.55;;;;;;;6.02;100.00;98157.28;6243376;28;20041;-74
2023/10/20 13:24:44;;;;;;;0.90;0.50;;;;;;;6.03;100.00;98178.00;6252343;28;20053;-72
2023/10/20 13:27:46;;;;;;;0.60;0.60;;;;;;;6.02;100.00;98181.56;6252602;28;20505;-73
2023/10/20 13:30:47;;;;;;;0.68;0.68;;;;;;;6.02;100.00;98170.31;6252496;28;20056;-72
2023/10/20 13:33:48;;;;;;;4.10;1.77;;;;;;;6.02;100.00;98171.16;6252531;28;20053;-72
2023/10/20 13:36:50;;;;;;;4.43;1.88;;;;;;;5.98;100.00;98169.72;6252643;28;20060;-73
2023/10/20 13:39:53;;;;;;;1.75;0.90;;;;;;;5.97;100.00;98169.84;6252333;28;20482;-73
2023/10/20 13:42:55;;;;;;;4.90;2.38;;;;;;;6.00;100.00;98167.00;6248663;28;20045;-73
2023/10/20 13:45:56;;;;;;;2.83;1.08;;;;;;;5.97;100.00;98172.44;6243631;28;20048;-72
2023/10/20 13:48:57;;;;;;;1.27;0.93;;;;;;;5.98;100.00;98176.72;6250842;28;20057;-73
2023/10/20 13:52:00;;;;;;;1.02;0.63;;;;;;;5.95;100.00;98188.22;6238102;28;20053;-72
2023/10/20 13:55:03;;;;;;;0.60;0.60;;;;;;;5.98;100.00;98176.72;6246395;28;20410;-72
2023/10/20 13:58:05;;;;;;;2.17;0.60;;;;;;;5.92;100.00;98190.22;6243929;28;20057;-73
2023/10/20 14:01:07;;;;;;;1.30;0.98;;;;;;;6.00;100.00;98200.91;6245848;28;20050;-73
2023/10/20 14:04:08;;;;;;;4.35;2.33;;;;;;;5.96;100.00;98191.66;6247216;28;20191;-72
2023/10/20 14:07:09;;;;;;;2.83;1.45;;;;;;;5.98;100.00;98181.91;6243408;28;20053;-72
2023/10/20 14:10:12;;;;;;;1.98;1.20;;;;;;;5.96;100.00;98168.19;6242225;28;20049;-73
2023/10/20 14:13:14;;;;;;;0.85;0.70;;;;;;;5.97;100.00;98170.66;6243307;28;20054;-73
2023/10/20 14:16:15;;;;;;;2.92;1.95;;;;;;;5.96;100.00;98171.63;6251543;28;20441;-72
2023/10/20 14:19:16;;;;;;;1.92;1.73;;;;;;;5.90;100.00;98172.03;6251239;28;20049;-72
2023/10/20 14:22:18;;;;;;;1.15;0.80;;;;;;;5.89;100.00;98172.97;6251007;28;20365;-73
2023/10/20 14:25:21;;;;;;;1.35;1.08;;;;;;;5.85;100.00;98161.94;6250036;28;20052;-74
2023/10/20 14:28:23;;;;;;;1.33;0.98;;;;;;;5.83;100.00;98176.06;6243444;28;20176;-74